sensor_id;sensor_type;location;lat;lon;timestamp;P1;durP1;ratioP1;P2;durP2;ratioP2
49488;SDS011;35382;51.484;11.476;2023-10-19T00:01:02;36.40;;;24.50;;
49488;SDS011;35382;51.484;11.476;2023-10-19T00:03:28;36.22;;;22.80;;
49488;SDS011;35382;51.484;11.476;2023-10-19T00:05:55;34.83;;;23.58;;
49488;SDS011;35382;51.484;11.476;2023-10-19T00:08:21;32.67;;;21.77;;
49488;SDS011;35382;51.484;11.476;2023-10-19T00:10:47;35.13;;;23.95;;
49488;SDS011;35382;51.484;11.476;2023-10-19T00:13:18;33.38;;;23.02;;
49488;SDS011;35382;51.484;11.476;2023-10-19T00:15:43;34.90;;;24.95;;
49488;SDS011;35382;51.484;11.476;2023-10-19T00:18:08;36.97;;;23.52;;
49488;SDS011;35382;51.484;11.476;2023-10-19T00:20:34;36.65;;;25.40;;
49488;SDS011;35382;51.484;11.476;2023-10-19T00:22:59;35.63;;;24.70;;
49488;SDS011;35382;51.484;11.476;2023-10-19T00:25:25;34.75;;;24.10;;
49488;SDS011;35382;51.484;11.476;2023-10-19T00:27:50;35.05;;;25.33;;
49488;SDS011;35382;51.484;11.476;2023-10-19T00:30:16;38.38;;;26.05;;
49488;SDS011;35382;51.484;11.476;2023-10-19T00:32:42;39.10;;;24.92;;
49488;SDS011;35382;51.484;11.476;2023-10-19T00:35:07;41.30;;;25.60;;
49488;SDS011;35382;51.484;11.476;2023-10-19T00:37:33;39.70;;;26.40;;
49488;SDS011;35382;51.484;11.476;2023-10-19T00:39:58;38.10;;;26.63;;
49488;SDS011;35382;51.484;11.476;2023-10-19T00:42:24;37.10;;;26.20;;
49488;SDS011;35382;51.484;11.476;2023-10-19T00:44:53;39.50;;;25.25;;
49488;SDS011;35382;51.484;11.476;2023-10-19T00:47:18;37.25;;;25.13;;
49488;SDS011;35382;51.484;11.476;2023-10-19T00:49:47;38.78;;;26.02;;
49488;SDS011;35382;51.484;11.476;2023-10-19T00:52:13;39.75;;;27.27;;
49488;SDS011;35382;51.484;11.476;2023-10-19T00:54:39;39.80;;;25.95;;
49488;SDS011;35382;51.484;11.476;2023-10-19T00:57:09;40.05;;;27.55;;
49488;SDS011;35382;51.484;11.476;2023-10-19T00:59:34;39.05;;;26.90;;
49488;SDS011;35382;51.484;11.476;2023-10-19T01:02:00;39.53;;;26.48;;
49488;SDS011;35382;51.484;11.476;2023-10-19T01:04:26;39.22;;;26.35;;
49488;SDS011;35382;51.484;11.476;2023-10-19T01:06:52;41.15;;;26.33;;
49488;SDS011;35382;51.484;11.476;2023-10-19T01:09:17;38.17;;;27.08;;
49488;SDS011;35382;51.484;11.476;2023-10-19T01:11:43;39.42;;;27.50;;
49488;SDS011;35382;51.484;11.476;2023-10-19T01:14:17;38.17;;;25.88;;
49488;SDS011;35382;51.484;11.476;2023-10-19T01:16:44;35.50;;;25.27;;
49488;SDS011;35382;51.484;11.476;2023-10-19T01:19:10;42.58;;;27.50;;
49488;SDS011;35382;51.484;11.476;2023-10-19T01:21:36;37.72;;;27.20;;
49488;SDS011;35382;51.484;11.476;2023-10-19T01:24:05;41.30;;;28.30;;
49488;SDS011;35382;51.484;11.476;2023-10-19T01:26:31;48.85;;;30.10;;
49488;SDS011;35382;51.484;11.476;2023-10-19T01:28:59;409.67;;;121.50;;
49488;SDS011;35382;51.484;11.476;2023-10-19T01:31:25;73.22;;;38.40;;
49488;SDS011;35382;51.484;11.476;2023-10-19T01:33:51;43.78;;;27.83;;
49488;SDS011;35382;51.484;11.476;2023-10-19T01:36:16;40.88;;;27.75;;
49488;SDS011;35382;51.484;11.476;2023-10-19T01:38:42;43.53;;;29.67;;
49488;SDS011;35382;51.484;11.476;2023-10-19T01:41:08;42.75;;;30.00;;
49488;SDS011;35382;51.484;11.476;2023-10-19T01:43:34;41.90;;;27.02;;
49488;SDS011;35382;51.484;11.476;2023-10-19T01:46:02;39.13;;;26.65;;
49488;SDS011;35382;51.484;11.476;2023-10-19T01:48:28;37.63;;;25.48;;
49488;SDS011;35382;51.484;11.476;2023-10-19T01:50:53;42.03;;;26.58;;
49488;SDS011;35382;51.484;11.476;2023-10-19T01:53:19;37.70;;;26.75;;
49488;SDS011;35382;51.484;11.476;2023-10-19T01:55:45;38.80;;;26.85;;
49488;SDS011;35382;51.484;11.476;2023-10-19T01:58:11;42.75;;;27.45;;
49488;SDS011;35382;51.484;11.476;2023-10-19T02:00:37;41.08;;;28.20;;
49488;SDS011;35382;51.484;11.476;2023-10-19T02:03:06;42.25;;;27.83;;
49488;SDS011;35382;51.484;11.476;2023-10-19T02:05:33;41.45;;;27.58;;
49488;SDS011;35382;51.484;11.476;2023-10-19T02:07:58;41.83;;;28.73;;
49488;SDS011;35382;51.484;11.476;2023-10-19T02:10:24;39.53;;;27.20;;
49488;SDS011;35382;51.484;11.476;2023-10-19T02:12:49;43.63;;;29.38;;
49488;SDS011;35382;51.484;11.476;2023-10-19T02:15:14;43.00;;;28.05;;
49488;SDS011;35382;51.484;11.476;2023-10-19T02:17:40;43.67;;;29.30;;
49488;SDS011;35382;51.484;11.476;2023-10-19T02:20:05;41.03;;;27.90;;
49488;SDS011;35382;51.484;11.476;2023-10-19T02:22:31;41.95;;;28.50;;
49488;SDS011;35382;51.484;11.476;2023-10-19T02:24:56;39.42;;;27.65;;
49488;SDS011;35382;51.484;11.476;2023-10-19T02:27:22;37.13;;;26.75;;
49488;SDS011;35382;51.484;11.476;2023-10-19T02:29:47;39.67;;;26.33;;
49488;SDS011;35382;51.484;11.476;2023-10-19T02:32:13;41.00;;;27.50;;
49488;SDS011;35382;51.484;11.476;2023-10-19T02:34:38;40.03;;;28.40;;
49488;SDS011;35382;51.484;11.476;2023-10-19T02:37:04;41.95;;;28.77;;
49488;SDS011;35382;51.484;11.476;2023-10-19T02:39:29;40.08;;;27.17;;
49488;SDS011;35382;51.484;11.476;2023-10-19T02:41:54;42.33;;;27.35;;
49488;SDS011;35382;51.484;11.476;2023-10-19T02:44:21;44.22;;;29.08;;
49488;SDS011;35382;51.484;11.476;2023-10-19T02:46:48;44.53;;;30.65;;
49488;SDS011;35382;51.484;11.476;2023-10-19T02:49:18;43.70;;;30.55;;
49488;SDS011;35382;51.484;11.476;2023-10-19T02:51:46;45.75;;;30.33;;
49488;SDS011;35382;51.484;11.476;2023-10-19T02:54:13;49.05;;;32.72;;
49488;SDS011;35382;51.484;11.476;2023-10-19T02:59:05;48.22;;;31.42;;
49488;SDS011;35382;51.484;11.476;2023-10-19T03:01:31;51.13;;;33.83;;
49488;SDS011;35382;51.484;11.476;2023-10-19T03:03:57;50.47;;;34.47;;
49488;SDS011;35382;51.484;11.476;2023-10-19T03:06:23;55.97;;;34.65;;
49488;SDS011;35382;51.484;11.476;2023-10-19T03:08:49;61.92;;;38.60;;
49488;SDS011;35382;51.484;11.476;2023-10-19T03:11:15;54.93;;;35.50;;
49488;SDS011;35382;51.484;11.476;2023-10-19T03:13:40;57.85;;;36.22;;
49488;SDS011;35382;51.484;11.476;2023-10-19T03:16:09;55.70;;;35.97;;
49488;SDS011;35382;51.484;11.476;2023-10-19T03:18:35;53.83;;;35.50;;
49488;SDS011;35382;51.484;11.476;2023-10-19T03:21:01;60.92;;;37.35;;
49488;SDS011;35382;51.484;11.476;2023-10-19T03:23:28;55.13;;;34.95;;
49488;SDS011;35382;51.484;11.476;2023-10-19T03:25:54;57.38;;;36.17;;
49488;SDS011;35382;51.484;11.476;2023-10-19T03:28:20;59.80;;;37.20;;
49488;SDS011;35382;51.484;11.476;2023-10-19T03:30:46;58.67;;;37.10;;
49488;SDS011;35382;51.484;11.476;2023-10-19T03:33:11;62.97;;;37.67;;
49488;SDS011;35382;51.484;11.476;2023-10-19T03:35:37;57.13;;;36.55;;
49488;SDS011;35382;51.484;11.476;2023-10-19T03:38:03;58.08;;;36.95;;
49488;SDS011;35382;51.484;11.476;2023-10-19T03:40:29;55.65;;;36.60;;
49488;SDS011;35382;51.484;11.476;2023-10-19T03:42:54;53.30;;;33.70;;
49488;SDS011;35382;51.484;11.476;2023-10-19T03:45:20;51.80;;;33.47;;
49488;SDS011;35382;51.484;11.476;2023-10-19T03:47:45;50.42;;;32.53;;
49488;SDS011;35382;51.484;11.476;2023-10-19T03:50:10;44.60;;;29.88;;
49488;SDS011;35382;51.484;11.476;2023-10-19T03:52:36;45.70;;;29.95;;
49488;SDS011;35382;51.484;11.476;2023-10-19T03:55:03;41.17;;;26.67;;
49488;SDS011;35382;51.484;11.476;2023-10-19T03:57:29;36.10;;;24.95;;
49488;SDS011;35382;51.484;11.476;2023-10-19T03:59:56;36.90;;;25.27;;
49488;SDS011;35382;51.484;11.476;2023-10-19T04:02:21;30.85;;;22.35;;
49488;SDS011;35382;51.484;11.476;2023-10-19T04:04:47;31.73;;;22.20;;
49488;SDS011;35382;51.484;11.476;2023-10-19T04:07:13;33.17;;;23.02;;
49488;SDS011;35382;51.484;11.476;2023-10-19T04:09:39;28.80;;;20.85;;
49488;SDS011;35382;51.484;11.476;2023-10-19T04:12:04;26.67;;;20.15;;
49488;SDS011;35382;51.484;11.476;2023-10-19T04:14:30;26.55;;;19.85;;
49488;SDS011;35382;51.484;11.476;2023-10-19T04:16:55;28.40;;;19.77;;
49488;SDS011;35382;51.484;11.476;2023-10-19T04:19:21;27.67;;;20.23;;
49488;SDS011;35382;51.484;11.476;2023-10-19T04:21:46;29.95;;;21.55;;
49488;SDS011;35382;51.484;11.476;2023-10-19T04:24:12;32.30;;;22.95;;
49488;SDS011;35382;51.484;11.476;2023-10-19T04:26:40;32.47;;;21.88;;
49488;SDS011;35382;51.484;11.476;2023-10-19T04:29:06;30.83;;;21.77;;
49488;SDS011;35382;51.484;11.476;2023-10-19T04:31:32;31.73;;;22.30;;
49488;SDS011;35382;51.484;11.476;2023-10-19T04:34:00;31.52;;;22.08;;
49488;SDS011;35382;51.484;11.476;2023-10-19T04:36:26;31.77;;;22.17;;
49488;SDS011;35382;51.484;11.476;2023-10-19T04:38:51;34.17;;;22.67;;
49488;SDS011;35382;51.484;11.476;2023-10-19T04:41:16;32.65;;;22.90;;
49488;SDS011;35382;51.484;11.476;2023-10-19T04:43:42;33.33;;;22.88;;
49488;SDS011;35382;51.484;11.476;2023-10-19T04:46:08;29.88;;;21.60;;
49488;SDS011;35382;51.484;11.476;2023-10-19T04:48:34;32.65;;;22.25;;
49488;SDS011;35382;51.484;11.476;2023-10-19T04:51:00;30.65;;;21.52;;
49488;SDS011;35382;51.484;11.476;2023-10-19T04:53:25;29.63;;;21.38;;
49488;SDS011;35382;51.484;11.476;2023-10-19T04:55:51;35.47;;;23.58;;
49488;SDS011;35382;51.484;11.476;2023-10-19T04:58:16;31.83;;;22.98;;
49488;SDS011;35382;51.484;11.476;2023-10-19T05:00:41;31.73;;;22.38;;
49488;SDS011;35382;51.484;11.476;2023-10-19T05:03:07;36.03;;;24.35;;
49488;SDS011;35382;51.484;11.476;2023-10-19T05:05:32;33.08;;;22.38;;
49488;SDS011;35382;51.484;11.476;2023-10-19T05:07:57;33.97;;;21.65;;
49488;SDS011;35382;51.484;11.476;2023-10-19T05:10:23;33.92;;;23.02;;
49488;SDS011;35382;51.484;11.476;2023-10-19T05:12:48;34.40;;;22.83;;
49488;SDS011;35382;51.484;11.476;2023-10-19T05:15:14;33.40;;;23.48;;
49488;SDS011;35382;51.484;11.476;2023-10-19T05:17:39;36.05;;;24.08;;
49488;SDS011;35382;51.484;11.476;2023-10-19T05:20:04;39.33;;;24.77;;
49488;SDS011;35382;51.484;11.476;2023-10-19T05:22:30;34.30;;;23.63;;
49488;SDS011;35382;51.484;11.476;2023-10-19T05:24:56;34.97;;;22.98;;
49488;SDS011;35382;51.484;11.476;2023-10-19T05:27:21;34.50;;;23.45;;
49488;SDS011;35382;51.484;11.476;2023-10-19T05:29:47;33.85;;;23.00;;
49488;SDS011;35382;51.484;11.476;2023-10-19T05:32:12;36.00;;;23.90;;
49488;SDS011;35382;51.484;11.476;2023-10-19T05:34:38;36.55;;;23.95;;
49488;SDS011;35382;51.484;11.476;2023-10-19T05:37:03;40.58;;;26.40;;
49488;SDS011;35382;51.484;11.476;2023-10-19T05:39:29;38.17;;;25.45;;
49488;SDS011;35382;51.484;11.476;2023-10-19T05:41:57;41.22;;;25.17;;
49488;SDS011;35382;51.484;11.476;2023-10-19T05:44:22;39.85;;;26.48;;
49488;SDS011;35382;51.484;11.476;2023-10-19T05:46:48;43.63;;;27.58;;
49488;SDS011;35382;51.484;11.476;2023-10-19T05:49:13;41.35;;;25.88;;
49488;SDS011;35382;51.484;11.476;2023-10-19T05:51:39;42.10;;;27.05;;
49488;SDS011;35382;51.484;11.476;2023-10-19T05:54:04;41.28;;;26.02;;
49488;SDS011;35382;51.484;11.476;2023-10-19T05:56:30;44.63;;;28.17;;
49488;SDS011;35382;51.484;11.476;2023-10-19T05:58:56;42.87;;;27.87;;
49488;SDS011;35382;51.484;11.476;2023-10-19T06:01:24;47.05;;;29.00;;
49488;SDS011;35382;51.484;11.476;2023-10-19T06:03:49;42.22;;;27.60;;
49488;SDS011;35382;51.484;11.476;2023-10-19T06:06:15;46.33;;;28.88;;
49488;SDS011;35382;51.484;11.476;2023-10-19T06:11:08;45.22;;;28.20;;
49488;SDS011;35382;51.484;11.476;2023-10-19T06:13:33;48.95;;;28.77;;
49488;SDS011;35382;51.484;11.476;2023-10-19T06:15:58;46.33;;;29.65;;
49488;SDS011;35382;51.484;11.476;2023-10-19T06:18:24;47.47;;;29.60;;
49488;SDS011;35382;51.484;11.476;2023-10-19T06:20:49;46.25;;;30.27;;
49488;SDS011;35382;51.484;11.476;2023-10-19T06:23:15;46.88;;;29.95;;
49488;SDS011;35382;51.484;11.476;2023-10-19T06:25:40;47.28;;;29.60;;
49488;SDS011;35382;51.484;11.476;2023-10-19T06:28:06;51.80;;;32.13;;
49488;SDS011;35382;51.484;11.476;2023-10-19T06:30:31;50.47;;;29.98;;
49488;SDS011;35382;51.484;11.476;2023-10-19T06:32:57;52.40;;;31.08;;
49488;SDS011;35382;51.484;11.476;2023-10-19T06:35:23;51.38;;;30.45;;
49488;SDS011;35382;51.484;11.476;2023-10-19T06:37:53;53.90;;;31.00;;
49488;SDS011;35382;51.484;11.476;2023-10-19T06:40:19;53.55;;;30.30;;
49488;SDS011;35382;51.484;11.476;2023-10-19T06:45:12;48.10;;;29.02;;
49488;SDS011;35382;51.484;11.476;2023-10-19T06:47:38;43.05;;;27.55;;
49488;SDS011;35382;51.484;11.476;2023-10-19T06:52:34;48.08;;;27.80;;
49488;SDS011;35382;51.484;11.476;2023-10-19T06:54:59;49.72;;;29.50;;
49488;SDS011;35382;51.484;11.476;2023-10-19T06:57:28;48.70;;;28.80;;
49488;SDS011;35382;51.484;11.476;2023-10-19T06:59:54;51.58;;;29.05;;
49488;SDS011;35382;51.484;11.476;2023-10-19T07:02:22;46.00;;;28.65;;
49488;SDS011;35382;51.484;11.476;2023-10-19T07:04:48;47.15;;;27.80;;
49488;SDS011;35382;51.484;11.476;2023-10-19T07:07:13;51.15;;;29.40;;
49488;SDS011;35382;51.484;11.476;2023-10-19T07:09:41;48.50;;;28.15;;
49488;SDS011;35382;51.484;11.476;2023-10-19T07:12:07;45.83;;;27.83;;
49488;SDS011;35382;51.484;11.476;2023-10-19T07:14:33;44.92;;;28.15;;
49488;SDS011;35382;51.484;11.476;2023-10-19T07:16:59;47.25;;;28.55;;
49488;SDS011;35382;51.484;11.476;2023-10-19T07:19:25;48.92;;;28.17;;
49488;SDS011;35382;51.484;11.476;2023-10-19T07:21:51;51.85;;;28.42;;
49488;SDS011;35382;51.484;11.476;2023-10-19T07:24:16;49.03;;;27.95;;
49488;SDS011;35382;51.484;11.476;2023-10-19T07:26:42;48.80;;;28.02;;
49488;SDS011;35382;51.484;11.476;2023-10-19T07:29:07;47.55;;;28.15;;
49488;SDS011;35382;51.484;11.476;2023-10-19T07:31:34;50.80;;;28.23;;
49488;SDS011;35382;51.484;11.476;2023-10-19T07:33:59;51.85;;;29.27;;
49488;SDS011;35382;51.484;11.476;2023-10-19T07:36:25;48.40;;;27.48;;
49488;SDS011;35382;51.484;11.476;2023-10-19T07:38:50;59.42;;;30.23;;
49488;SDS011;35382;51.484;11.476;2023-10-19T07:41:15;52.67;;;28.58;;
49488;SDS011;35382;51.484;11.476;2023-10-19T07:43:41;55.28;;;28.17;;
49488;SDS011;35382;51.484;11.476;2023-10-19T07:46:07;56.67;;;28.45;;
49488;SDS011;35382;51.484;11.476;2023-10-19T07:48:32;47.17;;;25.65;;
49488;SDS011;35382;51.484;11.476;2023-10-19T07:50:58;54.58;;;28.58;;
49488;SDS011;35382;51.484;11.476;2023-10-19T07:53:27;47.20;;;26.05;;
49488;SDS011;35382;51.484;11.476;2023-10-19T07:55:53;53.03;;;27.70;;
49488;SDS011;35382;51.484;11.476;2023-10-19T07:58:18;55.28;;;28.35;;
49488;SDS011;35382;51.484;11.476;2023-10-19T08:03:11;54.22;;;26.55;;
49488;SDS011;35382;51.484;11.476;2023-10-19T08:05:36;59.80;;;26.75;;
49488;SDS011;35382;51.484;11.476;2023-10-19T08:08:02;58.78;;;28.65;;
49488;SDS011;35382;51.484;11.476;2023-10-19T08:10:27;64.32;;;30.52;;
49488;SDS011;35382;51.484;11.476;2023-10-19T08:12:53;65.72;;;31.20;;
49488;SDS011;35382;51.484;11.476;2023-10-19T08:15:19;55.08;;;29.30;;
49488;SDS011;35382;51.484;11.476;2023-10-19T08:20:13;54.15;;;28.73;;
49488;SDS011;35382;51.484;11.476;2023-10-19T08:22:39;65.30;;;33.53;;
49488;SDS011;35382;51.484;11.476;2023-10-19T08:25:05;65.68;;;33.80;;
49488;SDS011;35382;51.484;11.476;2023-10-19T08:27:33;63.40;;;33.58;;
49488;SDS011;35382;51.484;11.476;2023-10-19T08:29:59;62.05;;;34.00;;
49488;SDS011;35382;51.484;11.476;2023-10-19T08:32:24;57.75;;;31.98;;
49488;SDS011;35382;51.484;11.476;2023-10-19T08:34:50;61.75;;;33.38;;
49488;SDS011;35382;51.484;11.476;2023-10-19T08:37:15;58.40;;;31.48;;
49488;SDS011;35382;51.484;11.476;2023-10-19T08:39:40;61.67;;;33.28;;
49488;SDS011;35382;51.484;11.476;2023-10-19T08:42:06;65.50;;;36.47;;
49488;SDS011;35382;51.484;11.476;2023-10-19T08:44:35;75.82;;;42.20;;
49488;SDS011;35382;51.484;11.476;2023-10-19T08:47:01;70.10;;;38.45;;
49488;SDS011;35382;51.484;11.476;2023-10-19T08:49:26;88.80;;;58.97;;
49488;SDS011;35382;51.484;11.476;2023-10-19T08:51:53;65.82;;;36.42;;
49488;SDS011;35382;51.484;11.476;2023-10-19T08:54:19;72.47;;;41.10;;
49488;SDS011;35382;51.484;11.476;2023-10-19T08:56:45;76.60;;;41.67;;
49488;SDS011;35382;51.484;11.476;2023-10-19T08:59:11;79.32;;;46.47;;
49488;SDS011;35382;51.484;11.476;2023-10-19T09:01:39;65.07;;;34.20;;
49488;SDS011;35382;51.484;11.476;2023-10-19T09:04:05;71.13;;;38.35;;
49488;SDS011;35382;51.484;11.476;2023-10-19T09:06:30;75.53;;;42.15;;
49488;SDS011;35382;51.484;11.476;2023-10-19T09:08:59;70.60;;;39.35;;
49488;SDS011;35382;51.484;11.476;2023-10-19T09:11:24;72.57;;;39.97;;
49488;SDS011;35382;51.484;11.476;2023-10-19T09:13:51;82.82;;;45.97;;
49488;SDS011;35382;51.484;11.476;2023-10-19T09:16:18;83.80;;;45.10;;
49488;SDS011;35382;51.484;11.476;2023-10-19T09:18:47;84.97;;;44.35;;
49488;SDS011;35382;51.484;11.476;2023-10-19T09:21:17;76.80;;;39.25;;
49488;SDS011;35382;51.484;11.476;2023-10-19T09:23:43;65.35;;;36.63;;
49488;SDS011;35382;51.484;11.476;2023-10-19T09:26:10;73.63;;;41.57;;
49488;SDS011;35382;51.484;11.476;2023-10-19T09:28:36;79.13;;;44.50;;
49488;SDS011;35382;51.484;11.476;2023-10-19T09:31:02;74.80;;;40.53;;
49488;SDS011;35382;51.484;11.476;2023-10-19T09:33:28;69.70;;;41.67;;
49488;SDS011;35382;51.484;11.476;2023-10-19T09:35:56;70.55;;;39.33;;
49488;SDS011;35382;51.484;11.476;2023-10-19T09:38:25;68.18;;;36.17;;
49488;SDS011;35382;51.484;11.476;2023-10-19T09:40:51;68.65;;;37.58;;
49488;SDS011;35382;51.484;11.476;2023-10-19T09:44:01;64.38;;;37.08;;
49488;SDS011;35382;51.484;11.476;2023-10-19T09:46:13;66.32;;;37.90;;
49488;SDS011;35382;51.484;11.476;2023-10-19T09:48:51;63.47;;;36.17;;
49488;SDS011;35382;51.484;11.476;2023-10-19T09:51:17;64.60;;;35.70;;
49488;SDS011;35382;51.484;11.476;2023-10-19T09:53:45;63.17;;;37.03;;
49488;SDS011;35382;51.484;11.476;2023-10-19T09:56:38;62.17;;;36.13;;
49488;SDS011;35382;51.484;11.476;2023-10-19T09:59:06;59.38;;;36.17;;
49488;SDS011;35382;51.484;11.476;2023-10-19T10:04:33;61.25;;;34.97;;
49488;SDS011;35382;51.484;11.476;2023-10-19T10:07:04;57.85;;;34.03;;
49488;SDS011;35382;51.484;11.476;2023-10-19T10:09:30;52.60;;;33.00;;
49488;SDS011;35382;51.484;11.476;2023-10-19T10:11:56;58.05;;;34.58;;
49488;SDS011;35382;51.484;11.476;2023-10-19T10:14:27;60.28;;;35.60;;
49488;SDS011;35382;51.484;11.476;2023-10-19T10:17:02;57.83;;;34.35;;
49488;SDS011;35382;51.484;11.476;2023-10-19T10:19:27;57.28;;;34.05;;
49488;SDS011;35382;51.484;11.476;2023-10-19T10:22:14;54.95;;;34.15;;
49488;SDS011;35382;51.484;11.476;2023-10-19T10:24:41;52.45;;;32.08;;
49488;SDS011;35382;51.484;11.476;2023-10-19T10:27:07;58.53;;;35.03;;
49488;SDS011;35382;51.484;11.476;2023-10-19T10:29:32;57.10;;;34.25;;
49488;SDS011;35382;51.484;11.476;2023-10-19T10:31:58;51.70;;;32.47;;
49488;SDS011;35382;51.484;11.476;2023-10-19T10:37:02;46.78;;;31.60;;
49488;SDS011;35382;51.484;11.476;2023-10-19T10:39:31;51.47;;;31.80;;
49488;SDS011;35382;51.484;11.476;2023-10-19T10:41:57;46.75;;;31.63;;
49488;SDS011;35382;51.484;11.476;2023-10-19T10:44:43;49.22;;;30.10;;
49488;SDS011;35382;51.484;11.476;2023-10-19T10:47:19;46.40;;;28.88;;
49488;SDS011;35382;51.484;11.476;2023-10-19T10:49:52;43.90;;;29.10;;
49488;SDS011;35382;51.484;11.476;2023-10-19T10:52:35;43.65;;;29.42;;
49488;SDS011;35382;51.484;11.476;2023-10-19T10:57:33;46.22;;;30.38;;
49488;SDS011;35382;51.484;11.476;2023-10-19T11:00:03;43.28;;;28.73;;
49488;SDS011;35382;51.484;11.476;2023-10-19T11:02:29;43.20;;;28.75;;
49488;SDS011;35382;51.484;11.476;2023-10-19T11:04:55;43.80;;;29.83;;
49488;SDS011;35382;51.484;11.476;2023-10-19T11:07:20;40.20;;;27.45;;
49488;SDS011;35382;51.484;11.476;2023-10-19T11:09:46;38.60;;;25.70;;
49488;SDS011;35382;51.484;11.476;2023-10-19T11:12:12;37.33;;;26.03;;
49488;SDS011;35382;51.484;11.476;2023-10-19T11:14:51;40.38;;;27.15;;
49488;SDS011;35382;51.484;11.476;2023-10-19T11:17:21;34.33;;;24.67;;
49488;SDS011;35382;51.484;11.476;2023-10-19T11:19:46;34.15;;;25.15;;
49488;SDS011;35382;51.484;11.476;2023-10-19T11:22:12;34.42;;;24.15;;
49488;SDS011;35382;51.484;11.476;2023-10-19T11:24:37;34.90;;;23.95;;
49488;SDS011;35382;51.484;11.476;2023-10-19T11:27:02;34.17;;;23.67;;
49488;SDS011;35382;51.484;11.476;2023-10-19T11:29:28;33.50;;;23.60;;
49488;SDS011;35382;51.484;11.476;2023-10-19T11:31:56;35.72;;;24.70;;
49488;SDS011;35382;51.484;11.476;2023-10-19T11:34:22;34.67;;;23.90;;
49488;SDS011;35382;51.484;11.476;2023-10-19T11:36:52;38.60;;;25.40;;
49488;SDS011;35382;51.484;11.476;2023-10-19T11:39:18;32.88;;;23.55;;
49488;SDS011;35382;51.484;11.476;2023-10-19T11:41:45;34.13;;;23.73;;
49488;SDS011;35382;51.484;11.476;2023-10-19T11:44:11;33.60;;;23.42;;
49488;SDS011;35382;51.484;11.476;2023-10-19T11:46:36;33.05;;;22.98;;
49488;SDS011;35382;51.484;11.476;2023-10-19T11:49:01;36.35;;;24.98;;
49488;SDS011;35382;51.484;11.476;2023-10-19T11:51:27;35.92;;;24.58;;
49488;SDS011;35382;51.484;11.476;2023-10-19T11:53:52;32.92;;;24.02;;
49488;SDS011;35382;51.484;11.476;2023-10-19T11:56:18;34.05;;;23.65;;
49488;SDS011;35382;51.484;11.476;2023-10-19T11:58:43;33.15;;;23.40;;
49488;SDS011;35382;51.484;11.476;2023-10-19T12:03:36;35.27;;;24.77;;
49488;SDS011;35382;51.484;11.476;2023-10-19T12:06:01;34.00;;;24.17;;
49488;SDS011;35382;51.484;11.476;2023-10-19T12:08:26;33.33;;;23.25;;
49488;SDS011;35382;51.484;11.476;2023-10-19T12:10:52;33.78;;;24.33;;
49488;SDS011;35382;51.484;11.476;2023-10-19T12:13:17;33.67;;;23.17;;
49488;SDS011;35382;51.484;11.476;2023-10-19T12:15:42;33.53;;;23.77;;
49488;SDS011;35382;51.484;11.476;2023-10-19T12:18:08;35.50;;;24.42;;
49488;SDS011;35382;51.484;11.476;2023-10-19T12:23:00;31.73;;;21.50;;
49488;SDS011;35382;51.484;11.476;2023-10-19T12:25:28;31.92;;;22.88;;
49488;SDS011;35382;51.484;11.476;2023-10-19T12:27:54;33.50;;;23.77;;
49488;SDS011;35382;51.484;11.476;2023-10-19T12:30:21;34.35;;;24.45;;
49488;SDS011;35382;51.484;11.476;2023-10-19T12:32:46;39.90;;;25.88;;
49488;SDS011;35382;51.484;11.476;2023-10-19T12:35:12;36.80;;;24.55;;
49488;SDS011;35382;51.484;11.476;2023-10-19T12:37:38;35.58;;;24.13;;
49488;SDS011;35382;51.484;11.476;2023-10-19T12:40:07;35.88;;;24.73;;
49488;SDS011;35382;51.484;11.476;2023-10-19T12:42:33;36.22;;;23.70;;
49488;SDS011;35382;51.484;11.476;2023-10-19T12:44:59;35.70;;;24.92;;
49488;SDS011;35382;51.484;11.476;2023-10-19T12:47:24;32.55;;;22.45;;
49488;SDS011;35382;51.484;11.476;2023-10-19T12:49:49;36.17;;;25.13;;
49488;SDS011;35382;51.484;11.476;2023-10-19T12:52:15;31.13;;;21.83;;
49488;SDS011;35382;51.484;11.476;2023-10-19T12:54:40;30.60;;;20.75;;
49488;SDS011;35382;51.484;11.476;2023-10-19T12:57:06;32.83;;;22.38;;
49488;SDS011;35382;51.484;11.476;2023-10-19T12:59:31;32.90;;;22.30;;
49488;SDS011;35382;51.484;11.476;2023-10-19T13:01:56;34.65;;;23.27;;
49488;SDS011;35382;51.484;11.476;2023-10-19T13:04:22;33.28;;;23.05;;
49488;SDS011;35382;51.484;11.476;2023-10-19T13:06:52;32.97;;;22.15;;
49488;SDS011;35382;51.484;11.476;2023-10-19T13:09:17;32.75;;;22.10;;
49488;SDS011;35382;51.484;11.476;2023-10-19T13:11:43;28.20;;;19.42;;
49488;SDS011;35382;51.484;11.476;2023-10-19T13:16:35;26.00;;;17.93;;
49488;SDS011;35382;51.484;11.476;2023-10-19T13:19:01;29.90;;;18.83;;
49488;SDS011;35382;51.484;11.476;2023-10-19T13:21:26;28.60;;;19.05;;
49488;SDS011;35382;51.484;11.476;2023-10-19T13:23:52;32.33;;;21.52;;
49488;SDS011;35382;51.484;11.476;2023-10-19T13:26:20;31.95;;;21.30;;
49488;SDS011;35382;51.484;11.476;2023-10-19T13:28:46;31.83;;;20.38;;
49488;SDS011;35382;51.484;11.476;2023-10-19T13:31:11;25.38;;;18.38;;
49488;SDS011;35382;51.484;11.476;2023-10-19T13:33:40;25.70;;;17.20;;
49488;SDS011;35382;51.484;11.476;2023-10-19T13:36:06;23.77;;;17.38;;
49488;SDS011;35382;51.484;11.476;2023-10-19T13:38:31;21.13;;;15.60;;
49488;SDS011;35382;51.484;11.476;2023-10-19T13:40:57;21.55;;;15.75;;
49488;SDS011;35382;51.484;11.476;2023-10-19T13:43:22;21.20;;;15.10;;
49488;SDS011;35382;51.484;11.476;2023-10-19T13:45:48;21.75;;;15.52;;
49488;SDS011;35382;51.484;11.476;2023-10-19T13:48:13;20.45;;;14.52;;
49488;SDS011;35382;51.484;11.476;2023-10-19T13:50:46;19.38;;;14.85;;
49488;SDS011;35382;51.484;11.476;2023-10-19T13:53:12;24.90;;;18.70;;
49488;SDS011;35382;51.484;11.476;2023-10-19T13:55:38;22.10;;;16.52;;
49488;SDS011;35382;51.484;11.476;2023-10-19T13:58:03;21.67;;;15.95;;
49488;SDS011;35382;51.484;11.476;2023-10-19T14:00:29;22.30;;;16.55;;
49488;SDS011;35382;51.484;11.476;2023-10-19T14:02:54;20.40;;;14.50;;
49488;SDS011;35382;51.484;11.476;2023-10-19T14:05:19;20.50;;;14.77;;
49488;SDS011;35382;51.484;11.476;2023-10-19T14:07:46;18.90;;;15.15;;
49488;SDS011;35382;51.484;11.476;2023-10-19T14:10:12;19.90;;;15.02;;
49488;SDS011;35382;51.484;11.476;2023-10-19T14:12:41;21.83;;;17.33;;
49488;SDS011;35382;51.484;11.476;2023-10-19T14:15:06;20.58;;;15.55;;
49488;SDS011;35382;51.484;11.476;2023-10-19T14:17:33;18.35;;;13.73;;
49488;SDS011;35382;51.484;11.476;2023-10-19T14:19:59;19.20;;;14.35;;
49488;SDS011;35382;51.484;11.476;2023-10-19T14:22:24;19.55;;;14.45;;
49488;SDS011;35382;51.484;11.476;2023-10-19T14:24:49;17.80;;;13.85;;
49488;SDS011;35382;51.484;11.476;2023-10-19T14:27:18;18.90;;;14.27;;
49488;SDS011;35382;51.484;11.476;2023-10-19T14:29:46;17.25;;;12.70;;
49488;SDS011;35382;51.484;11.476;2023-10-19T14:32:12;16.52;;;12.18;;
49488;SDS011;35382;51.484;11.476;2023-10-19T14:34:37;17.15;;;12.90;;